createdAt,value
2018-05-13T00:00:40.865Z,90.10
2018-05-13T00:03:09.161Z,90.30
2018-05-13T00:05:36.674Z,90.30
2018-05-13T00:08:04.195Z,90.40
2018-05-13T00:10:32.500Z,90.60
2018-05-13T00:13:00.045Z,90.60
2018-05-13T00:15:30.026Z,90.70
2018-05-13T00:17:57.568Z,90.90
2018-05-13T00:20:25.074Z,90.70
2018-05-13T00:22:52.583Z,91.00
2018-05-13T00:25:20.113Z,91.00
2018-05-13T00:27:47.634Z,91.10
2018-05-13T00:30:15.200Z,91.20
2018-05-13T00:32:43.577Z,91.60
2018-05-13T00:35:11.058Z,91.50
2018-05-13T00:37:38.580Z,91.60
2018-05-13T00:40:06.890Z,91.70
2018-05-13T00:42:34.419Z,91.70
2018-05-13T00:45:01.953Z,91.70
2018-05-13T00:47:29.897Z,91.70
2018-05-13T00:49:57.409Z,91.90
2018-05-13T00:52:24.936Z,92.20
2018-05-13T00:54:54.091Z,92.20
2018-05-13T00:57:21.610Z,92.70
2018-05-13T00:59:49.315Z,92.40
2018-05-13T01:02:16.868Z,92.50
2018-05-13T01:04:45.184Z,92.40
2018-05-13T01:07:12.776Z,92.90
2018-05-13T01:09:41.089Z,92.90
2018-05-13T01:12:08.650Z,92.80
2018-05-13T01:14:36.167Z,93.00
2018-05-13T01:17:04.457Z,93.00
2018-05-13T01:19:32.746Z,93.00
2018-05-13T01:22:00.285Z,93.00
2018-05-13T01:24:27.827Z,93.20
2018-05-13T01:26:55.346Z,93.20
2018-05-13T01:29:22.913Z,93.20
2018-05-13T01:31:50.452Z,93.40
2018-05-13T01:34:17.990Z,93.50
2018-05-13T01:36:45.516Z,93.60
2018-05-13T01:39:13.062Z,93.60
2018-05-13T01:41:41.000Z,93.60
2018-05-13T01:44:08.529Z,93.70
2018-05-13T01:46:36.834Z,93.80
2018-05-13T01:49:04.372Z,93.80
2018-05-13T01:51:31.895Z,93.90
2018-05-13T01:53:59.452Z,94.00
2018-05-13T01:56:26.998Z,94.30
2018-05-13T01:58:54.532Z,94.10
2018-05-13T02:01:22.064Z,94.20
2018-05-13T02:03:49.721Z,94.20
2018-05-13T02:06:17.349Z,94.20
2018-05-13T02:08:44.885Z,94.40
2018-05-13T02:11:12.412Z,94.40
2018-05-13T02:13:39.946Z,94.40
2018-05-13T02:16:07.505Z,94.60
2018-05-13T02:18:35.837Z,94.70
2018-05-13T02:21:03.363Z,94.70
2018-05-13T02:23:30.887Z,94.70
2018-05-13T02:25:59.193Z,94.90
2018-05-13T02:28:26.709Z,94.90
2018-05-13T02:30:54.251Z,95.20
2018-05-13T02:33:21.879Z,95.20
2018-05-13T02:35:49.425Z,95.20
2018-05-13T02:38:16.966Z,95.20
2018-05-13T02:40:44.604Z,95.20
2018-05-13T02:43:12.909Z,95.30
2018-05-13T02:45:40.604Z,95.40
2018-05-13T02:48:08.126Z,95.40
2018-05-13T02:50:36.434Z,95.40
2018-05-13T02:53:03.967Z,95.40
2018-05-13T02:55:31.500Z,95.40
2018-05-13T02:57:59.105Z,95.40
2018-05-13T03:00:26.646Z,95.40
2018-05-13T03:02:54.228Z,95.60
2018-05-13T03:05:21.782Z,95.60
2018-05-13T03:07:49.738Z,95.80
2018-05-13T03:10:17.401Z,95.70
2018-05-13T03:12:44.950Z,95.80
2018-05-13T03:15:12.477Z,95.70
2018-05-13T03:17:40.208Z,95.90
2018-05-13T03:20:07.858Z,96.00
2018-05-13T03:22:35.394Z,96.10
2018-05-13T03:25:02.952Z,96.00
2018-05-13T03:27:30.476Z,96.20
2018-05-13T03:29:58.006Z,96.10
2018-05-13T03:32:25.527Z,96.10
2018-05-13T03:34:53.054Z,96.10
2018-05-13T03:37:20.666Z,96.20
2018-05-13T03:39:48.223Z,96.30
2018-05-13T03:42:15.749Z,96.40
2018-05-13T03:44:43.266Z,96.40
2018-05-13T03:47:10.990Z,96.60
2018-05-13T03:49:38.456Z,96.50
2018-05-13T03:52:05.975Z,96.40
2018-05-13T03:54:33.498Z,96.50
2018-05-13T03:57:01.024Z,96.60
2018-05-13T03:59:28.654Z,96.80
2018-05-13T04:01:56.211Z,96.90
2018-05-13T04:04:23.734Z,96.90
2018-05-13T04:06:51.316Z,97.00
2018-05-13T04:09:30.777Z,96.90
2018-05-13T04:12:10.790Z,97.10
2018-05-13T04:14:50.194Z,97.10
2018-05-13T04:17:17.724Z,97.10
2018-05-13T04:19:46.043Z,97.10
2018-05-13T04:22:13.564Z,97.10
2018-05-13T04:24:41.880Z,97.10
2018-05-13T04:27:09.410Z,97.10
2018-05-13T04:29:37.706Z,97.30
2018-05-13T04:32:05.231Z,97.20
2018-05-13T04:34:32.746Z,97.30
2018-05-13T04:37:00.292Z,97.30
2018-05-13T04:39:27.820Z,97.40
2018-05-13T04:41:55.346Z,97.40
2018-05-13T04:44:22.882Z,97.40
2018-05-13T04:46:50.639Z,97.30
2018-05-13T04:49:18.186Z,97.40
2018-05-13T04:51:45.707Z,97.30
2018-05-13T04:54:13.442Z,97.30
2018-05-13T04:56:40.971Z,97.30
2018-05-13T04:59:08.495Z,97.30
2018-05-13T05:01:36.024Z,97.30
2018-05-13T05:04:03.542Z,97.40
2018-05-13T05:06:31.064Z,97.40
2018-05-13T05:08:58.645Z,97.40
2018-05-13T05:11:26.930Z,97.30
2018-05-13T05:13:54.461Z,97.30
2018-05-13T05:16:21.984Z,97.40
2018-05-13T05:18:49.514Z,97.50
2018-05-13T05:21:17.057Z,97.50
2018-05-13T05:23:44.584Z,97.90
2018-05-13T05:26:13.073Z,97.60
2018-05-13T05:28:41.371Z,97.50
2018-05-13T05:31:08.893Z,97.50
2018-05-13T05:33:36.423Z,97.50
2018-05-13T05:36:03.953Z,97.60
2018-05-13T05:38:31.603Z,97.60
2018-05-13T05:40:59.139Z,97.60
2018-05-13T05:43:26.715Z,97.70
2018-05-13T05:45:54.277Z,97.70
2018-05-13T05:48:21.836Z,97.70
2018-05-13T05:50:50.109Z,97.70
2018-05-13T05:53:17.643Z,97.70
2018-05-13T05:55:45.199Z,97.60
2018-05-13T05:58:13.505Z,97.60
2018-05-13T06:00:41.037Z,97.60
2018-05-13T06:03:08.594Z,97.60
2018-05-13T06:05:36.121Z,97.70
2018-05-13T06:08:03.644Z,97.70
2018-05-13T06:10:31.177Z,97.70
2018-05-13T06:12:59.484Z,97.60
2018-05-13T06:15:27.014Z,97.50
2018-05-13T06:17:54.547Z,97.50
2018-05-13T06:20:22.104Z,97.60
2018-05-13T06:22:49.648Z,97.60
2018-05-13T06:25:17.233Z,97.50
2018-05-13T06:27:44.751Z,97.40
2018-05-13T06:30:12.282Z,97.60
2018-05-13T06:32:39.873Z,97.60
2018-05-13T06:35:07.374Z,97.40
2018-05-13T06:37:35.791Z,97.30
2018-05-13T06:40:03.343Z,97.20
2018-05-13T06:42:30.943Z,97.30
2018-05-13T06:44:58.462Z,97.30
2018-05-13T06:47:26.003Z,97.30
2018-05-13T06:49:53.520Z,97.00
2018-05-13T06:52:21.062Z,96.90
2018-05-13T06:54:48.583Z,96.90
2018-05-13T06:57:16.156Z,96.70
2018-05-13T06:59:44.447Z,96.80
2018-05-13T07:02:11.982Z,96.80
2018-05-13T07:04:39.511Z,97.10
2018-05-13T07:07:07.933Z,96.60
2018-05-13T07:09:35.464Z,96.50
2018-05-13T07:12:03.746Z,96.30
2018-05-13T07:14:32.062Z,96.40
2018-05-13T07:16:59.582Z,96.40
2018-05-13T07:19:27.096Z,96.90
2018-05-13T07:21:54.626Z,96.40
2018-05-13T07:24:22.155Z,96.20
2018-05-13T07:26:49.679Z,96.20
2018-05-13T07:29:17.222Z,96.30
2018-05-13T07:31:44.739Z,96.20
2018-05-13T07:34:12.276Z,96.10
2018-05-13T07:36:40.552Z,96.40
2018-05-13T07:39:08.862Z,96.30
2018-05-13T07:41:36.398Z,96.20
2018-05-13T07:44:03.932Z,96.00
2018-05-13T07:46:31.450Z,95.40
2018-05-13T07:48:59.001Z,95.70
2018-05-13T07:51:26.528Z,96.00
2018-05-13T07:53:54.940Z,95.20
2018-05-13T07:56:22.465Z,95.20
2018-05-13T07:58:50.750Z,94.90
2018-05-13T08:01:18.405Z,94.90
2018-05-13T08:03:46.706Z,94.50
2018-05-13T08:06:14.254Z,94.50
2018-05-13T08:08:41.790Z,93.70
2018-05-13T08:11:10.082Z,94.00
2018-05-13T08:13:37.614Z,94.00
2018-05-13T08:16:06.014Z,94.40
2018-05-13T08:18:34.483Z,94.00
2018-05-13T08:21:02.900Z,94.30
2018-05-13T08:23:30.436Z,94.20
2018-05-13T08:25:57.963Z,94.00
2018-05-13T08:28:26.195Z,94.50
2018-05-13T08:30:53.784Z,94.20
2018-05-13T08:33:21.323Z,93.50
2018-05-13T08:35:48.852Z,93.50
2018-05-13T08:38:16.394Z,93.70
2018-05-13T08:40:43.928Z,93.40
2018-05-13T08:43:11.470Z,93.10
2018-05-13T08:45:38.996Z,93.20
2018-05-13T08:48:06.548Z,92.80
2018-05-13T08:50:34.201Z,93.10
2018-05-13T08:53:01.739Z,93.50
2018-05-13T08:55:30.042Z,92.40
2018-05-13T08:57:57.596Z,92.40
2018-05-13T09:00:25.126Z,93.00
2018-05-13T09:02:53.434Z,93.40
2018-05-13T09:05:20.964Z,93.40
2018-05-13T09:07:48.558Z,93.00
2018-05-13T09:10:16.077Z,92.70
2018-05-13T09:12:43.772Z,92.50
2018-05-13T09:15:11.300Z,92.60
2018-05-13T09:17:38.851Z,92.70
2018-05-13T09:20:06.418Z,92.50
2018-05-13T09:22:34.718Z,92.60
2018-05-13T09:25:03.032Z,92.10
2018-05-13T09:27:30.751Z,92.10
2018-05-13T09:29:58.311Z,92.60
2018-05-13T09:32:25.856Z,92.60
2018-05-13T09:34:53.448Z,91.30
2018-05-13T09:37:20.972Z,92.00
2018-05-13T09:39:48.548Z,91.90
2018-05-13T09:42:16.852Z,92.20
2018-05-13T09:44:44.424Z,92.20
2018-05-13T09:47:11.976Z,91.50
2018-05-13T09:49:39.552Z,91.10
2018-05-13T09:52:07.096Z,90.80
2018-05-13T09:54:34.660Z,91.40
2018-05-13T09:57:02.358Z,91.40
2018-05-13T09:59:30.006Z,91.40
2018-05-13T10:01:57.564Z,90.80
2018-05-13T10:04:26.596Z,90.50
2018-05-13T10:06:54.896Z,90.60
2018-05-13T10:09:22.451Z,90.60
2018-05-13T10:11:49.997Z,89.20
2018-05-13T10:14:17.607Z,89.70
2018-05-13T10:16:45.148Z,90.00
2018-05-13T10:19:12.706Z,89.00
2018-05-13T10:21:41.179Z,88.10
2018-05-13T10:24:08.729Z,90.00
2018-05-13T10:26:36.333Z,89.20
2018-05-13T10:29:03.875Z,90.00
2018-05-13T10:31:31.618Z,89.20
2018-05-13T10:33:59.163Z,88.00
2018-05-13T10:36:26.735Z,88.10
2018-05-13T10:38:54.277Z,86.10
2018-05-13T10:41:21.815Z,85.30
2018-05-13T10:43:49.393Z,85.60
2018-05-13T10:46:17.670Z,85.50
2018-05-13T10:48:45.182Z,85.30
2018-05-13T10:51:12.706Z,83.90
2018-05-13T10:53:40.432Z,84.20
2018-05-13T10:56:08.759Z,83.50
2018-05-13T10:58:36.387Z,83.50
2018-05-13T11:01:03.970Z,83.80
2018-05-13T11:03:31.521Z,82.40
2018-05-13T11:05:59.051Z,82.30
2018-05-13T11:08:26.729Z,80.80
2018-05-13T11:10:54.261Z,80.50
2018-05-13T11:13:22.576Z,80.10
2018-05-13T11:15:50.104Z,80.10
2018-05-13T11:18:17.654Z,80.50
2018-05-13T11:20:46.041Z,78.40
2018-05-13T11:23:13.504Z,78.40
2018-05-13T11:25:41.058Z,80.40
2018-05-13T11:28:09.340Z,78.80
2018-05-13T11:30:37.693Z,77.30
2018-05-13T11:33:05.234Z,77.30
2018-05-13T11:35:32.861Z,77.90
2018-05-13T11:38:00.433Z,78.50
2018-05-13T11:40:28.032Z,76.90
2018-05-13T11:42:56.342Z,77.30
2018-05-13T11:45:23.882Z,76.90
2018-05-13T11:47:51.440Z,74.70
2018-05-13T11:50:19.753Z,74.40
2018-05-13T11:52:47.360Z,74.40
2018-05-13T11:55:14.891Z,75.10
2018-05-13T11:57:42.405Z,74.50
2018-05-13T12:00:09.966Z,74.00
2018-05-13T12:02:37.504Z,73.50
2018-05-13T12:05:05.058Z,71.00
2018-05-13T12:07:32.642Z,69.50
2018-05-13T12:10:00.928Z,70.40
2018-05-13T12:12:28.448Z,70.40
2018-05-13T12:14:56.004Z,70.50
2018-05-13T12:17:23.532Z,71.50
2018-05-13T12:19:51.050Z,69.20
2018-05-13T12:22:18.616Z,69.30
2018-05-13T12:24:46.140Z,68.20
2018-05-13T12:27:13.668Z,67.60
2018-05-13T12:29:41.297Z,67.00
2018-05-13T12:32:08.841Z,66.70
2018-05-13T12:34:36.396Z,67.30
2018-05-13T12:37:04.689Z,66.30
2018-05-13T12:39:32.328Z,66.30
2018-05-13T12:42:00.658Z,64.80
2018-05-13T12:44:28.297Z,64.80
2018-05-13T12:46:55.814Z,66.40
2018-05-13T12:49:23.390Z,66.10
2018-05-13T12:51:51.700Z,67.90
2018-05-13T12:54:19.230Z,67.90
2018-05-13T12:56:46.777Z,68.10
2018-05-13T12:59:15.091Z,67.10
2018-05-13T13:01:42.611Z,67.10
2018-05-13T13:04:10.152Z,66.90
2018-05-13T13:06:37.726Z,67.70
2018-05-13T13:09:05.276Z,67.80
2018-05-13T13:11:32.883Z,67.00
2018-05-13T13:14:00.417Z,67.40
2018-05-13T13:16:28.719Z,67.80
2018-05-13T13:18:56.244Z,67.80
2018-05-13T13:21:24.043Z,67.30
2018-05-13T13:23:51.593Z,67.20
2018-05-13T13:26:19.123Z,68.50
2018-05-13T13:28:47.412Z,78.00
2018-05-13T13:31:14.965Z,78.00
2018-05-13T13:33:42.501Z,80.90
2018-05-13T13:36:10.026Z,79.60
2018-05-13T13:38:37.554Z,81.70
2018-05-13T13:41:05.081Z,82.90
2018-05-13T13:43:32.706Z,84.10
2018-05-13T13:46:00.420Z,86.40
2018-05-13T13:48:28.728Z,89.00
2018-05-13T13:50:56.353Z,88.20
2018-05-13T13:53:24.721Z,87.10
2018-05-13T13:55:52.272Z,87.00
2018-05-13T13:58:19.887Z,85.60
2018-05-13T14:00:47.443Z,85.00
2018-05-13T14:03:14.968Z,82.40
2018-05-13T14:05:42.485Z,80.90
2018-05-13T14:08:10.015Z,80.10
2018-05-13T14:10:37.570Z,75.10
2018-05-13T14:13:05.243Z,71.90
2018-05-13T14:15:32.780Z,70.60
2018-05-13T14:18:00.376Z,67.00
2018-05-13T14:20:28.049Z,65.20
2018-05-13T14:22:55.453Z,62.10
2018-05-13T14:25:23.032Z,63.40
2018-05-13T14:27:50.605Z,61.90
2018-05-13T14:30:18.146Z,59.80
2018-05-13T14:32:45.668Z,62.60
2018-05-13T14:35:13.207Z,58.10
2018-05-13T14:37:40.750Z,57.00
2018-05-13T14:40:08.349Z,57.50
2018-05-13T14:42:36.647Z,59.60
2018-05-13T14:45:04.192Z,59.60
2018-05-13T14:47:31.734Z,61.50
2018-05-13T14:49:59.414Z,61.30
2018-05-13T14:52:27.690Z,62.40
2018-05-13T14:54:55.966Z,62.10
2018-05-13T14:57:24.455Z,62.70
2018-05-13T14:59:51.985Z,62.60
2018-05-13T15:02:19.497Z,63.70
2018-05-13T15:04:47.082Z,64.10
2018-05-13T15:07:26.417Z,64.10
2018-05-13T15:09:53.957Z,64.60
2018-05-13T15:12:21.473Z,65.70
2018-05-13T15:14:49.887Z,64.60
2018-05-13T15:17:17.447Z,64.50
2018-05-13T15:19:45.005Z,63.80
2018-05-13T15:22:14.431Z,63.20
2018-05-13T15:24:41.958Z,62.50
2018-05-13T15:27:10.303Z,62.90
2018-05-13T15:29:38.723Z,62.60
2018-05-13T15:32:06.243Z,62.60
2018-05-13T15:34:34.528Z,62.60
2018-05-13T15:37:02.800Z,62.90
2018-05-13T15:39:31.127Z,62.90
2018-05-13T15:41:58.681Z,62.90
2018-05-13T15:44:26.194Z,63.40
2018-05-13T15:46:54.510Z,62.80
2018-05-13T15:49:22.039Z,62.80
2018-05-13T15:51:49.552Z,59.10
2018-05-13T15:54:17.074Z,64.90
2018-05-13T15:56:44.605Z,70.90
2018-05-13T15:59:12.140Z,72.30
2018-05-13T16:01:39.657Z,70.80
2018-05-13T16:04:07.217Z,71.50
2018-05-13T16:06:34.755Z,72.10
2018-05-13T16:09:02.389Z,73.50
2018-05-13T16:11:30.681Z,74.90
2018-05-13T16:13:58.225Z,74.90
2018-05-13T16:16:25.762Z,74.30
2018-05-13T16:18:53.318Z,75.00
2018-05-13T16:21:20.831Z,74.00
2018-05-13T16:23:48.356Z,74.70
2018-05-13T16:26:16.635Z,74.60
2018-05-13T16:28:44.918Z,75.20
2018-05-13T16:31:13.227Z,76.00
2018-05-13T16:33:40.774Z,75.90
2018-05-13T16:36:08.304Z,76.50
2018-05-13T16:38:36.605Z,77.70
2018-05-13T16:41:04.144Z,77.60
2018-05-13T16:43:31.691Z,77.10
2018-05-13T16:45:59.989Z,78.30
2018-05-13T16:48:27.525Z,78.20
2018-05-13T16:50:55.083Z,79.40
2018-05-13T16:53:23.357Z,82.10
2018-05-13T16:55:51.645Z,82.80
2018-05-13T16:58:19.927Z,83.00
2018-05-13T17:00:48.205Z,84.80
2018-05-13T17:03:16.510Z,85.10
2018-05-13T17:05:44.078Z,85.10
2018-05-13T17:08:11.620Z,85.60
2018-05-13T17:10:39.148Z,84.80
2018-05-13T17:13:06.709Z,85.20
2018-05-13T17:15:34.997Z,84.30
2018-05-13T17:18:02.517Z,84.30
2018-05-13T17:20:30.081Z,86.20
2018-05-13T17:22:58.517Z,89.70
2018-05-13T17:25:26.163Z,89.70
2018-05-13T17:27:53.693Z,90.20
2018-05-13T17:30:21.991Z,91.60
2018-05-13T17:32:49.637Z,91.60
2018-05-13T17:35:17.921Z,91.70
2018-05-13T17:37:46.316Z,92.10
2018-05-13T17:40:13.867Z,92.10
2018-05-13T17:42:41.407Z,92.10
2018-05-13T17:45:08.953Z,92.40
2018-05-13T17:47:37.426Z,92.50
2018-05-13T17:50:04.969Z,92.50
2018-05-13T17:52:32.481Z,92.50
2018-05-13T17:55:00.044Z,92.60
2018-05-13T17:57:27.673Z,93.00
2018-05-13T17:59:55.160Z,93.80
2018-05-13T18:02:22.904Z,93.40
2018-05-13T18:04:50.371Z,93.20
2018-05-13T18:07:17.915Z,93.80
2018-05-13T18:09:46.261Z,95.00
2018-05-13T18:12:13.790Z,95.00
2018-05-13T18:14:41.337Z,95.40
2018-05-13T18:17:08.860Z,95.30
2018-05-13T18:19:36.475Z,95.50
2018-05-13T18:22:03.993Z,96.50
2018-05-13T18:24:31.535Z,96.80
2018-05-13T18:26:59.054Z,97.20
2018-05-13T18:29:26.601Z,97.50
2018-05-13T18:31:54.131Z,98.00
2018-05-13T18:34:22.453Z,99.70
2018-05-13T18:36:49.983Z,99.60
2018-05-13T18:39:17.624Z,99.30
2018-05-13T18:41:45.241Z,99.00
2018-05-13T18:44:12.783Z,99.00
2018-05-13T18:46:40.316Z,98.80
2018-05-13T18:49:07.871Z,99.40
2018-05-13T18:51:35.409Z,99.40
2018-05-13T18:54:03.741Z,99.90
2018-05-13T18:56:31.370Z,99.90
2018-05-13T18:58:58.972Z,99.80
2018-05-13T19:01:26.462Z,99.90
2018-05-13T19:03:54.782Z,99.60
2018-05-13T19:06:22.329Z,99.60
2018-05-13T19:08:49.990Z,99.90
2018-05-13T19:11:17.522Z,99.90
2018-05-13T19:13:45.823Z,99.90
2018-05-13T19:16:13.387Z,99.90
2018-05-13T19:18:40.953Z,99.90
2018-05-13T19:21:08.519Z,99.90
2018-05-13T19:23:36.051Z,99.90
2018-05-13T19:26:03.619Z,99.90
2018-05-13T19:28:31.204Z,99.90
2018-05-13T19:30:59.012Z,99.90
2018-05-13T19:33:26.519Z,99.90
2018-05-13T19:35:54.891Z,99.90
2018-05-13T19:38:22.427Z,99.90
2018-05-13T19:40:50.731Z,99.90
2018-05-13T19:43:18.509Z,99.90
2018-05-13T19:45:46.053Z,99.90
2018-05-13T19:48:13.599Z,99.90
2018-05-13T19:50:41.147Z,99.90
2018-05-13T19:53:08.681Z,99.90
2018-05-13T19:55:36.201Z,99.90
2018-05-13T19:58:03.762Z,99.90
2018-05-13T20:00:31.371Z,99.90
2018-05-13T20:02:59.744Z,99.90
2018-05-13T20:05:28.049Z,99.90
2018-05-13T20:07:55.590Z,99.90
2018-05-13T20:10:23.351Z,99.90
2018-05-13T20:12:51.629Z,99.90
2018-05-13T20:15:19.914Z,99.90
2018-05-13T20:17:48.343Z,99.90
2018-05-13T20:20:15.883Z,99.90
2018-05-13T20:22:55.166Z,99.90
2018-05-13T20:25:23.454Z,99.90
2018-05-13T20:27:51.745Z,99.90
2018-05-13T20:30:19.300Z,99.90
2018-05-13T20:32:46.953Z,99.90
2018-05-13T20:35:14.477Z,99.90
2018-05-13T20:37:42.013Z,99.90
2018-05-13T20:40:09.758Z,99.90
2018-05-13T20:42:37.303Z,99.90
2018-05-13T20:45:04.875Z,99.90
2018-05-13T20:47:32.423Z,99.90
2018-05-13T20:49:59.945Z,99.90
2018-05-13T20:52:27.487Z,99.90
2018-05-13T20:54:55.045Z,99.90
2018-05-13T20:57:22.571Z,99.90
2018-05-13T20:59:50.120Z,99.90
2018-05-13T21:02:17.658Z,99.90
2018-05-13T21:04:45.241Z,99.90
2018-05-13T21:07:12.780Z,99.90
2018-05-13T21:09:40.301Z,99.90
2018-05-13T21:12:07.861Z,99.90
2018-05-13T21:14:35.422Z,99.90
2018-05-13T21:17:03.040Z,99.90
2018-05-13T21:19:30.560Z,99.90
2018-05-13T21:21:58.853Z,99.90
2018-05-13T21:24:27.212Z,99.90
2018-05-13T21:26:54.713Z,99.90
2018-05-13T21:29:22.255Z,99.90
2018-05-13T21:31:49.792Z,99.90
2018-05-13T21:34:17.489Z,99.90
2018-05-13T21:36:45.029Z,99.90
2018-05-13T21:39:12.590Z,99.90
2018-05-13T21:41:40.114Z,99.90
2018-05-13T21:44:08.465Z,99.90
2018-05-13T21:46:35.999Z,99.90
2018-05-13T21:49:03.519Z,99.90
2018-05-13T21:51:31.821Z,99.90
2018-05-13T21:53:59.327Z,99.90
2018-05-13T21:56:26.867Z,99.90
2018-05-13T21:58:54.399Z,99.90
2018-05-13T22:01:22.029Z,99.90
2018-05-13T22:03:50.533Z,99.90
2018-05-13T22:06:18.088Z,99.90
2018-05-13T22:08:45.609Z,99.90
2018-05-13T22:11:13.169Z,99.90
2018-05-13T22:13:40.762Z,99.90
2018-05-13T22:16:09.041Z,99.90
2018-05-13T22:18:37.342Z,99.90
2018-05-13T22:21:04.865Z,99.90
2018-05-13T22:23:33.168Z,99.90
2018-05-13T22:26:00.685Z,99.90
2018-05-13T22:28:28.235Z,99.90
2018-05-13T22:30:55.753Z,99.90
2018-05-13T22:33:23.280Z,99.90
2018-05-13T22:35:51.576Z,99.90
2018-05-13T22:38:19.141Z,99.90
2018-05-13T22:40:46.663Z,99.90
2018-05-13T22:43:15.078Z,99.90
2018-05-13T22:45:42.626Z,99.90
2018-05-13T22:48:10.153Z,99.90
2018-05-13T22:50:37.842Z,99.90
2018-05-13T22:53:05.359Z,99.90
2018-05-13T22:55:32.875Z,99.90
2018-05-13T22:58:00.479Z,99.90
2018-05-13T23:00:28.024Z,99.90
2018-05-13T23:02:55.566Z,99.90
2018-05-13T23:05:23.127Z,99.90
2018-05-13T23:07:50.640Z,99.90
2018-05-13T23:10:18.199Z,99.90
2018-05-13T23:12:46.493Z,99.90
2018-05-13T23:15:14.024Z,99.90
2018-05-13T23:17:41.569Z,99.90
2018-05-13T23:20:09.113Z,99.90
2018-05-13T23:22:36.659Z,99.90
2018-05-13T23:25:04.182Z,99.90
2018-05-13T23:27:31.713Z,99.90
2018-05-13T23:29:59.417Z,99.90
2018-05-13T23:32:27.005Z,99.90
2018-05-13T23:34:54.532Z,99.90
2018-05-13T23:37:22.063Z,99.90
2018-05-13T23:39:50.359Z,99.90
2018-05-13T23:42:17.869Z,99.90
2018-05-13T23:44:45.411Z,99.90
2018-05-13T23:47:13.048Z,99.90
2018-05-13T23:49:40.569Z,99.90
2018-05-13T23:52:08.881Z,99.90
2018-05-13T23:54:36.409Z,99.90
2018-05-13T23:57:03.936Z,99.90
2018-05-13T23:59:31.562Z,99.90
